Time;durP1;ratioP1;P1;durP2;ratioP2;P2;SDS_P1;SDS_P2;PMS_P1;PMS_P2;Temp;Humidity;BMP_temperature;BMP_pressure;BME280_temperature;BME280_humidity;BME280_pressure;Samples;Min_cycle;Max_cycle;Signal;HPM_P1;HPM_P2
2022/06/30 00:01:33;;;;;;;2.80;2.60;;;;;;;19.90;60.66;100450.63;5052344;28;20205;-77
2022/06/30 00:04:00;;;;;;;2.77;2.57;;;;;;;19.81;61.12;100459.94;5051727;28;20554;-76
2022/06/30 00:06:26;;;;;;;3.23;3.03;;;;;;;19.84;61.13;100441.25;5050889;28;20204;-76
2022/06/30 00:08:53;;;;;;;2.50;2.30;;;;;;;19.85;60.92;100455.34;5051336;28;20210;-76
2022/06/30 00:11:21;;;;;;;2.70;2.50;;;;;;;19.88;60.60;100464.88;5051934;28;20208;-76
2022/06/30 00:13:48;;;;;;;2.60;2.40;;;;;;;19.87;60.68;100460.53;5051636;28;20913;-75
2022/06/30 00:16:15;;;;;;;2.73;2.53;;;;;;;19.79;61.06;100455.69;5051827;28;20217;-76
2022/06/30 00:18:42;;;;;;;2.67;2.50;;;;;;;19.80;60.89;100460.03;5051918;28;20209;-76
2022/06/30 00:21:09;;;;;;;2.67;2.47;;;;;;;19.77;60.60;100452.28;5051641;28;20286;-76
2022/06/30 00:23:36;;;;;;;2.20;2.10;;;;;;;19.68;61.49;100431.56;5051387;28;20628;-76
2022/06/30 00:26:03;;;;;;;2.53;2.43;;;;;;;19.60;62.04;100422.28;5051794;28;20201;-76
2022/06/30 00:28:30;;;;;;;2.20;2.10;;;;;;;19.50;62.43;100399.88;5051321;28;20283;-77
2022/06/30 00:30:57;;;;;;;2.90;2.70;;;;;;;19.45;62.83;100386.91;5051971;28;20209;-75
2022/06/30 00:33:24;;;;;;;2.13;2.00;;;;;;;19.43;63.41;100367.63;5051808;28;20209;-76
2022/06/30 00:35:51;;;;;;;2.40;2.27;;;;;;;19.50;63.03;100361.97;5051485;28;20675;-75
2022/06/30 00:38:17;;;;;;;2.23;2.00;;;;;;;19.52;63.08;100357.44;5051130;28;20225;-76
2022/06/30 00:40:45;;;;;;;2.20;2.00;;;;;;;19.45;63.05;100356.97;5051465;28;20208;-77
2022/06/30 00:43:12;;;;;;;2.40;2.27;;;;;;;19.45;62.80;100362.25;5051650;28;20201;-75
2022/06/30 00:45:42;;;;;;;2.47;2.37;;;;;;;19.43;62.86;100366.78;5051771;28;20210;-76
2022/06/30 00:48:09;;;;;;;2.20;2.10;;;;;;;19.38;63.00;100355.59;5051129;28;20630;-76
2022/06/30 00:50:35;;;;;;;2.63;2.40;;;;;;;19.29;63.75;100348.19;5051414;28;20221;-76
2022/06/30 00:53:03;;;;;;;2.53;2.20;;;;;;;19.30;63.63;100336.66;5051093;28;20205;-77
2022/06/30 00:55:31;;;;;;;2.30;2.20;;;;;;;19.23;64.09;100334.34;5051295;28;20558;-75
2022/06/30 00:58:00;;;;;;;2.67;2.47;;;;;;;19.15;63.79;100331.28;5051208;28;20233;-76
2022/06/30 01:00:29;;;;;;;2.83;2.37;;;;;;;19.12;63.81;100325.31;5052268;28;20209;-75
2022/06/30 01:02:59;;;;;;;3.07;2.87;;;;;;;19.08;64.33;100310.56;5055130;28;20197;-76
2022/06/30 01:05:26;;;;;;;2.33;2.23;;;;;;;19.12;64.06;100306.78;5055479;28;20213;-76
2022/06/30 01:07:54;;;;;;;2.40;2.20;;;;;;;19.09;63.81;100317.53;5054472;28;20742;-77
2022/06/30 01:13:05;;;;;;;2.10;2.00;;;;;;;19.17;63.36;100340.00;5055105;28;20216;-76
2022/06/30 01:15:31;;;;;;;2.20;2.10;;;;;;;19.17;63.61;100334.69;5054988;28;20198;-77
2022/06/30 01:18:00;;;;;;;2.10;2.00;;;;;;;19.16;63.47;100332.97;5054602;28;20255;-76
2022/06/30 01:20:28;;;;;;;2.20;2.00;;;;;;;19.20;63.08;100349.53;5054978;28;20205;-75
2022/06/30 01:22:57;;;;;;;2.57;2.40;;;;;;;19.18;63.06;100360.22;5054782;28;20213;-76
2022/06/30 01:25:24;;;;;;;2.50;1.93;;;;;;;19.20;63.02;100365.41;5055065;28;20565;-76
2022/06/30 01:27:50;;;;;;;2.43;2.30;;;;;;;19.03;63.76;100354.00;5054450;28;20222;-76
2022/06/30 01:30:17;;;;;;;2.33;2.23;;;;;;;18.99;64.09;100341.03;5054413;28;20674;-76
2022/06/30 01:32:43;;;;;;;2.97;2.77;;;;;;;18.92;64.12;100332.56;5055095;28;20232;-76
2022/06/30 01:35:10;;;;;;;2.33;2.23;;;;;;;18.80;64.49;100320.88;5054919;28;20209;-75
2022/06/30 01:37:49;;;;;;;2.83;2.60;;;;;;;18.83;64.46;100320.72;5054038;28;20287;-76
2022/06/30 01:40:17;;;;;;;2.57;2.43;;;;;;;18.87;63.66;100323.19;5054575;28;20263;-76
2022/06/30 01:42:44;;;;;;;2.40;2.23;;;;;;;18.88;63.60;100336.31;5054403;28;20205;-76
2022/06/30 01:45:11;;;;;;;3.00;2.80;;;;;;;18.88;63.27;100348.69;5054427;28;20194;-76
2022/06/30 01:47:38;;;;;;;2.80;2.70;;;;;;;18.88;63.70;100354.84;5054250;28;20282;-76
2022/06/30 01:50:05;;;;;;;2.80;2.60;;;;;;;18.87;63.61;100345.22;5054554;28;20218;-76
2022/06/30 01:52:32;;;;;;;2.70;2.50;;;;;;;18.80;64.12;100336.75;5054597;28;20252;-76
2022/06/30 01:54:58;;;;;;;2.70;2.50;;;;;;;18.77;64.65;100328.09;5053875;28;20212;-76
2022/06/30 01:57:26;;;;;;;3.00;2.70;;;;;;;18.71;65.19;100308.16;5054210;28;20307;-76
2022/06/30 01:59:53;;;;;;;2.67;2.47;;;;;;;18.66;65.47;100297.81;5054267;28;20202;-76
2022/06/30 02:02:19;;;;;;;3.20;2.90;;;;;;;18.66;64.92;100294.31;5054424;28;20206;-76
2022/06/30 02:04:50;;;;;;;2.90;2.70;;;;;;;18.69;64.92;100301.22;5054146;28;20205;-76
2022/06/30 02:07:17;;;;;;;3.43;2.53;;;;;;;18.71;65.02;100296.69;5053855;28;20217;-76
2022/06/30 02:09:44;;;;;;;2.60;2.40;;;;;;;18.68;65.34;100291.59;5053793;28;20237;-75
2022/06/30 02:14:56;;;;;;;2.57;2.47;;;;;;;18.61;65.48;100275.19;5053475;28;20312;-76
2022/06/30 02:17:23;;;;;;;2.63;2.43;;;;;;;18.68;65.56;100281.84;5049531;28;20222;-77
2022/06/30 02:19:50;;;;;;;3.10;2.90;;;;;;;18.64;65.14;100286.47;5053091;28;20733;-75
2022/06/30 02:22:16;;;;;;;3.20;2.93;;;;;;;18.68;64.36;100296.88;5053645;28;20197;-76
2022/06/30 02:24:42;;;;;;;3.23;3.03;;;;;;;18.65;64.68;100301.41;5050706;28;20197;-76
2022/06/30 02:27:09;;;;;;;2.83;2.73;;;;;;;18.62;64.76;100309.47;5053431;28;20213;-76
2022/06/30 02:29:35;;;;;;;3.57;3.30;;;;;;;18.57;64.61;100314.19;5053098;28;20251;-76
2022/06/30 02:32:04;;;;;;;3.17;2.97;;;;;;;18.58;64.60;100313.22;5053127;28;20197;-76
2022/06/30 02:34:30;;;;;;;3.33;3.13;;;;;;;18.60;64.64;100315.81;5053332;28;20259;-76
2022/06/30 02:36:57;;;;;;;4.67;3.23;;;;;;;18.53;64.88;100311.78;5053053;28;20290;-77
2022/06/30 02:39:24;;;;;;;3.70;3.43;;;;;;;18.50;65.33;100311.94;5048688;28;20255;-76
2022/06/30 02:41:50;;;;;;;3.77;3.57;;;;;;;18.45;65.55;100283.09;5053115;28;20194;-76
2022/06/30 02:44:17;;;;;;;3.00;2.80;;;;;;;18.30;66.23;100274.22;5052853;28;20197;-76
2022/06/30 02:46:43;;;;;;;3.17;2.90;;;;;;;18.24;66.59;100256.91;5050213;28;20217;-76
2022/06/30 02:49:11;;;;;;;3.67;3.40;;;;;;;18.15;67.12;100245.97;5052739;28;20244;-76
2022/06/30 02:51:37;;;;;;;3.33;3.13;;;;;;;18.09;67.20;100236.59;5052821;28;20205;-75
2022/06/30 02:54:04;;;;;;;3.57;3.27;;;;;;;18.03;67.49;100237.78;5049911;28;20208;-75
2022/06/30 02:56:30;;;;;;;2.80;2.70;;;;;;;18.04;67.44;100231.56;5052640;28;20197;-76
2022/06/30 02:58:56;;;;;;;3.10;2.90;;;;;;;18.02;67.44;100237.88;5052430;28;20197;-76
2022/06/30 03:01:23;;;;;;;2.83;2.63;;;;;;;17.95;67.65;100223.28;5052446;28;20251;-77
2022/06/30 03:03:49;;;;;;;2.70;2.50;;;;;;;17.97;67.64;100221.41;5052081;28;20671;-76
2022/06/30 03:06:17;;;;;;;2.87;2.60;;;;;;;18.00;67.53;100221.25;5052107;28;20251;-76
2022/06/30 03:08:43;;;;;;;2.67;2.53;;;;;;;17.95;68.09;100215.34;5049562;28;20250;-76
2022/06/30 03:11:16;;;;;;;2.97;2.77;;;;;;;17.95;68.27;100205.63;5052252;28;20197;-76
2022/06/30 03:13:42;;;;;;;3.57;2.47;;;;;;;17.94;68.20;100203.06;5051835;28;20621;-76
2022/06/30 03:16:09;;;;;;;3.33;3.13;;;;;;;17.90;68.03;100204.16;5052471;28;20613;-76
2022/06/30 03:18:35;;;;;;;3.53;3.33;;;;;;;17.92;67.81;100212.84;5051671;28;20232;-75
2022/06/30 03:21:02;;;;;;;3.20;3.00;;;;;;;17.91;67.99;100211.16;5052382;28;20201;-76
2022/06/30 03:23:29;;;;;;;3.10;2.90;;;;;;;17.94;67.65;100216.28;5051519;28;20209;-76
2022/06/30 03:25:56;;;;;;;4.87;3.57;;;;;;;17.95;67.74;100210.06;5052095;28;20271;-75
2022/06/30 03:28:22;;;;;;;3.60;3.20;;;;;;;17.93;67.72;100210.16;5051424;28;20221;-75
2022/06/30 03:30:48;;;;;;;3.63;3.30;;;;;;;17.95;67.81;100218.00;5052604;28;20208;-75
2022/06/30 03:33:15;;;;;;;3.40;3.10;;;;;;;17.89;68.21;100203.31;5051975;28;20265;-75
2022/06/30 03:35:42;;;;;;;3.20;3.00;;;;;;;17.88;68.27;100199.00;5052775;28;20202;-75
2022/06/30 03:38:09;;;;;;;3.20;3.00;;;;;;;17.80;68.72;100187.94;5051917;28;20788;-75
2022/06/30 03:40:37;;;;;;;3.10;2.90;;;;;;;17.87;68.79;100184.06;5052363;28;20205;-76
2022/06/30 03:43:03;;;;;;;3.20;3.00;;;;;;;17.87;69.07;100165.59;5052348;28;20213;-75
2022/06/30 03:45:30;;;;;;;3.13;2.83;;;;;;;17.79;69.68;100152.75;5044073;28;20206;-76
2022/06/30 03:47:56;;;;;;;2.60;2.50;;;;;;;17.84;69.13;100163.13;5051692;28;20225;-75
2022/06/30 03:50:23;;;;;;;3.17;2.97;;;;;;;17.84;69.43;100171.03;5052019;28;20212;-76
2022/06/30 03:52:49;;;;;;;3.13;2.93;;;;;;;17.80;69.55;100161.53;5052405;28;20260;-76
2022/06/30 03:55:17;;;;;;;3.17;2.97;;;;;;;17.89;70.38;100139.09;5051921;28;20206;-76
2022/06/30 03:57:44;;;;;;;2.83;2.73;;;;;;;17.92;69.72;100146.84;5051836;28;20631;-76
2022/06/30 04:00:11;;;;;;;2.90;2.70;;;;;;;17.90;69.14;100165.44;5052090;28;20555;-76
2022/06/30 04:02:38;;;;;;;3.17;2.97;;;;;;;17.85;69.35;100173.59;5052227;28;20212;-76
2022/06/30 04:05:05;;;;;;;3.20;3.00;;;;;;;17.90;69.48;100183.03;5051980;28;20213;-76
2022/06/30 04:07:32;;;;;;;3.07;2.87;;;;;;;17.85;69.75;100172.72;5051847;28;20276;-75
2022/06/30 04:09:58;;;;;;;3.33;3.13;;;;;;;17.85;69.75;100185.94;5051492;28;20204;-76
2022/06/30 04:12:25;;;;;;;3.30;3.10;;;;;;;17.85;69.70;100178.00;5051962;28;20259;-76
2022/06/30 04:14:52;;;;;;;3.27;3.07;;;;;;;17.85;70.26;100173.59;5051647;28;20259;-76
2022/06/30 04:17:19;;;;;;;3.40;3.20;;;;;;;17.82;70.62;100159.69;5051915;28;20292;-77
2022/06/30 04:19:45;;;;;;;3.37;3.13;;;;;;;17.80;71.06;100146.56;5051544;28;20209;-76
2022/06/30 04:22:12;;;;;;;3.93;3.53;;;;;;;17.79;70.86;100146.63;5051739;28;20545;-76
2022/06/30 04:24:38;;;;;;;3.60;3.40;;;;;;;17.91;69.82;100166.28;5051766;28;20335;-76
2022/06/30 04:27:06;;;;;;;3.33;3.13;;;;;;;17.95;70.21;100167.81;5051929;28;20222;-75
2022/06/30 04:29:32;;;;;;;3.23;3.00;;;;;;;18.00;69.72;100168.44;5051726;28;20257;-76
2022/06/30 04:34:44;;;;;;;3.03;2.83;;;;;;;18.09;70.12;100145.94;5051763;28;20693;-77
2022/06/30 04:37:11;;;;;;;3.67;3.33;;;;;;;18.15;70.28;100143.78;5055307;28;20305;-76
2022/06/30 04:39:37;;;;;;;3.53;3.33;;;;;;;18.20;70.96;100141.78;5055544;28;20205;-77
2022/06/30 04:42:03;;;;;;;4.97;3.53;;;;;;;18.20;71.63;100123.28;5055884;28;20259;-76
2022/06/30 04:44:29;;;;;;;5.33;3.30;;;;;;;18.04;70.62;100136.47;5047234;28;20193;-76
2022/06/30 04:46:56;;;;;;;3.50;3.30;;;;;;;18.09;70.76;100149.41;5055575;28;20225;-76
2022/06/30 04:49:23;;;;;;;3.77;3.47;;;;;;;18.17;70.80;100154.28;5055600;28;20201;-76
2022/06/30 04:51:50;;;;;;;3.33;3.13;;;;;;;18.16;71.27;100134.09;5055459;28;20266;-76
2022/06/30 04:54:17;;;;;;;3.40;3.20;;;;;;;18.17;71.96;100134.00;5055420;28;20205;-76
2022/06/30 04:56:43;;;;;;;4.03;3.60;;;;;;;18.21;70.48;100146.09;5055245;28;20635;-76
2022/06/30 04:59:10;;;;;;;4.47;4.07;;;;;;;18.21;69.63;100183.09;5055192;28;20225;-75
2022/06/30 05:01:36;;;;;;;6.33;5.00;;;;;;;18.19;69.98;100192.03;5055351;28;20267;-77
2022/06/30 05:04:03;;;;;;;9.53;4.37;;;;;;;18.19;70.18;100195.53;5055621;28;20271;-76
2022/06/30 05:06:31;;;;;;;4.63;4.23;;;;;;;18.14;70.53;100181.75;5055566;28;20267;-76
2022/06/30 05:08:57;;;;;;;4.97;4.50;;;;;;;18.18;70.36;100183.28;5054620;28;20202;-77
2022/06/30 05:11:23;;;;;;;4.63;4.23;;;;;;;18.23;69.64;100198.88;5055165;28;20267;-75
2022/06/30 05:13:50;;;;;;;5.40;4.10;;;;;;;18.30;70.15;100202.88;5055434;28;20193;-76
2022/06/30 05:16:16;;;;;;;4.67;4.03;;;;;;;18.36;70.12;100183.19;5055019;28;20244;-76
2022/06/30 05:18:43;;;;;;;4.40;4.10;;;;;;;18.42;70.38;100186.34;5054655;28;20328;-76
2022/06/30 05:21:09;;;;;;;5.00;4.50;;;;;;;18.50;70.55;100177.16;5055138;28;20243;-76
2022/06/30 05:23:37;;;;;;;4.80;4.40;;;;;;;18.58;70.82;100164.34;5055072;28;20235;-75
2022/06/30 05:28:47;;;;;;;6.13;5.50;;;;;;;18.76;70.69;100167.72;5054661;28;20303;-75
2022/06/30 05:31:14;;;;;;;5.83;5.33;;;;;;;18.84;70.48;100171.66;5054779;28;20212;-76
2022/06/30 05:33:40;;;;;;;4.67;4.27;;;;;;;18.93;70.26;100180.88;5054313;28;20213;-76
2022/06/30 05:36:07;;;;;;;4.80;4.40;;;;;;;19.02;70.39;100172.38;5054949;28;20282;-76
2022/06/30 05:38:34;;;;;;;6.43;5.90;;;;;;;19.10;69.57;100198.41;5054397;28;20233;-76
2022/06/30 05:41:01;;;;;;;7.37;6.70;;;;;;;19.19;69.02;100212.91;5054498;28;20690;-76
2022/06/30 05:43:28;;;;;;;7.33;6.70;;;;;;;19.25;68.77;100241.66;5054676;28;20614;-76
2022/06/30 05:45:55;;;;;;;6.50;6.10;;;;;;;19.30;68.75;100249.31;5054225;28;20616;-77
2022/06/30 05:48:21;;;;;;;5.83;5.43;;;;;;;19.35;68.07;100263.97;5054086;28;20715;-76
2022/06/30 05:50:49;;;;;;;5.77;5.37;;;;;;;19.42;68.73;100259.16;5054446;28;20209;-76
2022/06/30 05:53:16;;;;;;;6.63;5.97;;;;;;;19.48;68.15;100263.25;5054602;28;20213;-76
2022/06/30 05:55:43;;;;;;;5.80;5.30;;;;;;;19.55;67.52;100288.44;5054272;28;20204;-76
2022/06/30 06:00:57;;;;;;;4.17;3.87;;;;;;;19.68;68.01;100288.56;5067684;28;20235;-75
2022/06/30 06:03:23;;;;;;;5.03;4.63;;;;;;;19.73;66.93;100297.97;5056067;28;20206;-77
2022/06/30 06:05:50;;;;;;;4.13;3.70;;;;;;;19.78;67.13;100309.16;5048151;28;20252;-77
2022/06/30 06:08:16;;;;;;;4.40;4.10;;;;;;;19.84;67.43;100299.97;5028473;28;20221;-76
2022/06/30 06:10:43;;;;;;;4.53;4.13;;;;;;;19.91;66.82;100309.25;5024575;28;20230;-78
2022/06/30 06:13:11;;;;;;;4.27;3.97;;;;;;;19.99;66.56;100309.66;5026305;28;20653;-77
2022/06/30 06:15:37;;;;;;;4.43;4.13;;;;;;;20.06;66.92;100319.88;5026572;28;20198;-78
2022/06/30 06:18:05;;;;;;;5.17;4.23;;;;;;;20.14;67.71;100296.44;5024000;28;20229;-76
2022/06/30 06:20:32;;;;;;;4.20;3.80;;;;;;;20.21;67.32;100295.09;5023010;28;20207;-76
2022/06/30 06:22:58;;;;;;;4.40;4.00;;;;;;;20.25;66.99;100299.25;5024771;28;20198;-76
2022/06/30 06:25:25;;;;;;;9.93;4.33;;;;;;;20.33;66.77;100301.44;5023336;28;20210;-76
2022/06/30 06:30:36;;;;;;;4.50;4.10;;;;;;;20.51;66.94;100296.78;5033485;28;20579;-76
2022/06/30 06:33:03;;;;;;;5.73;3.47;;;;;;;20.56;67.02;100292.91;5027359;28;20203;-76
2022/06/30 06:35:30;;;;;;;4.20;3.90;;;;;;;20.65;66.92;100296.78;5025223;28;20776;-77
2022/06/30 06:37:57;;;;;;;4.60;4.30;;;;;;;20.75;67.13;100289.09;5023834;28;20687;-76
2022/06/30 06:40:23;;;;;;;4.30;4.07;;;;;;;20.83;67.35;100293.00;5022947;28;20547;-77
2022/06/30 06:42:50;;;;;;;4.87;4.57;;;;;;;20.90;67.17;100284.63;5022612;28;20255;-76
2022/06/30 06:45:16;;;;;;;4.87;4.57;;;;;;;21.02;67.20;100286.50;5024117;28;20202;-76
2022/06/30 06:47:43;;;;;;;5.13;4.77;;;;;;;21.12;67.64;100281.44;5022900;28;20219;-76
2022/06/30 06:50:10;;;;;;;4.47;4.17;;;;;;;21.22;67.52;100269.25;5024740;28;20203;-76
2022/06/30 06:52:38;;;;;;;4.83;4.53;;;;;;;21.33;67.53;100265.91;5031670;28;20209;-76
2022/06/30 06:55:05;;;;;;;5.60;5.10;;;;;;;21.45;67.50;100269.53;5022852;28;20198;-76
2022/06/30 06:57:36;;;;;;;5.30;4.90;;;;;;;21.57;67.21;100266.94;5023219;28;20276;-76
2022/06/30 07:00:03;;;;;;;5.30;4.90;;;;;;;21.63;66.75;100286.91;5021976;28;20249;-76
2022/06/30 07:02:30;;;;;;;5.23;4.83;;;;;;;;;;5021910;28;20222;-76
2022/06/30 07:04:56;;;;;;;5.10;4.70;;;;;;;21.66;66.32;100285.84;5021603;28;20207;-77
2022/06/30 07:07:23;;;;;;;5.27;4.87;;;;;;;21.66;67.01;100275.22;5022496;28;20226;-76
2022/06/30 07:09:50;;;;;;;5.73;5.33;;;;;;;21.64;67.07;100269.16;5023232;28;20850;-75
2022/06/30 07:12:17;;;;;;;5.33;5.03;;;;;;;21.64;67.16;100277.13;5023831;28;20248;-75
2022/06/30 07:14:43;;;;;;;5.30;4.77;;;;;;;21.65;67.65;100261.09;5022791;28;20257;-75
2022/06/30 07:17:10;;;;;;;5.70;5.30;;;;;;;21.67;67.45;100258.34;5021863;28;20214;-75
2022/06/30 07:19:36;;;;;;;5.37;4.87;;;;;;;21.70;67.83;100256.31;5023162;28;20276;-75
2022/06/30 07:22:03;;;;;;;5.10;4.80;;;;;;;21.74;68.20;100247.19;5030057;28;20848;-76
2022/06/30 07:24:30;;;;;;;6.23;5.63;;;;;;;21.77;68.82;100220.41;5023692;28;20202;-76
2022/06/30 07:26:57;;;;;;;6.07;5.70;;;;;;;21.86;68.66;100224.22;5023338;28;20564;-76
2022/06/30 07:29:24;;;;;;;6.30;5.73;;;;;;;21.92;68.46;100223.81;5022167;28;20203;-76
2022/06/30 07:31:51;;;;;;;6.27;5.67;;;;;;;22.00;68.55;100220.59;5021559;28;20662;-76
2022/06/30 07:34:17;;;;;;;6.53;6.13;;;;;;;22.06;68.65;100214.00;5023230;28;20734;-76
2022/06/30 07:36:44;;;;;;;6.17;5.77;;;;;;;22.13;68.38;100212.63;5021730;28;20215;-76
2022/06/30 07:39:10;;;;;;;6.10;5.70;;;;;;;22.20;68.21;100228.03;5021043;28;20296;-76
2022/06/30 07:41:37;;;;;;;7.10;6.67;;;;;;;22.28;68.06;100234.63;5023316;28;20256;-76
2022/06/30 07:44:05;;;;;;;6.50;6.00;;;;;;;22.34;68.02;100234.22;5022012;28;20330;-75
2022/06/30 07:46:31;;;;;;;6.90;6.40;;;;;;;22.40;68.08;100231.09;5020958;28;20209;-75
2022/06/30 07:48:58;;;;;;;7.00;6.50;;;;;;;22.44;68.31;100226.38;5022630;28;20198;-76
2022/06/30 07:51:24;;;;;;;7.33;6.83;;;;;;;22.49;68.10;100235.75;5028567;28;20283;-76
2022/06/30 07:53:51;;;;;;;7.73;7.03;;;;;;;22.56;68.13;100241.50;5026074;28;20405;-76
2022/06/30 07:56:17;;;;;;;7.93;7.43;;;;;;;22.63;67.82;100241.88;5020936;28;20199;-76
2022/06/30 07:58:44;;;;;;;7.23;6.73;;;;;;;22.68;67.93;100239.75;5021623;28;20301;-75
2022/06/30 08:01:12;;;;;;;8.23;7.43;;;;;;;22.71;67.91;100232.38;5022567;28;20675;-76
2022/06/30 08:03:39;;;;;;;7.30;6.80;;;;;;;22.77;68.07;100237.28;5022694;28;20244;-76
2022/06/30 08:06:05;;;;;;;8.27;7.77;;;;;;;22.82;68.06;100238.75;5021471;28;20207;-76
2022/06/30 08:08:33;;;;;;;8.00;7.43;;;;;;;22.90;68.19;100223.91;5023316;28;20276;-76
2022/06/30 08:11:00;;;;;;;7.63;7.13;;;;;;;22.97;67.30;100243.78;5022862;28;20210;-76
2022/06/30 08:13:26;;;;;;;8.20;7.60;;;;;;;23.05;67.20;100247.72;5021884;28;20207;-76
2022/06/30 08:15:52;;;;;;;8.20;7.60;;;;;;;23.09;67.80;100246.50;5018005;28;20257;-76
2022/06/30 08:18:20;;;;;;;8.37;7.77;;;;;;;23.16;67.32;100242.44;5011546;28;20312;-76
2022/06/30 08:20:47;;;;;;;8.00;7.40;;;;;;;23.17;68.43;100223.69;5026496;28;20238;-76
2022/06/30 08:23:13;;;;;;;8.67;8.07;;;;;;;23.28;67.74;100222.03;5043470;28;20259;-77
2022/06/30 08:25:40;;;;;;;8.83;8.23;;;;;;;23.32;67.56;100236.81;5051905;28;20210;-77
2022/06/30 08:28:08;;;;;;;9.20;8.60;;;;;;;23.39;67.24;100246.03;5050963;28;20230;-77
2022/06/30 08:30:35;;;;;;;9.77;9.10;;;;;;;23.43;66.41;100265.28;5051458;28;20201;-77
2022/06/30 08:33:01;;;;;;;9.43;8.83;;;;;;;23.53;66.40;100276.97;5051399;28;20268;-77
2022/06/30 08:35:29;;;;;;;10.77;9.97;;;;;;;23.57;65.49;100294.41;5051366;28;20212;-77
2022/06/30 08:37:55;;;;;;;10.23;9.53;;;;;;;23.65;66.02;100308.00;5051094;28;20235;-77
2022/06/30 08:43:09;;;;;;;11.23;10.23;;;;;;;23.76;65.80;100299.19;5051608;28;20212;-77
2022/06/30 08:45:36;;;;;;;12.20;11.27;;;;;;;23.79;66.30;100299.00;5051582;28;20221;-76
2022/06/30 08:48:03;;;;;;;11.10;10.40;;;;;;;23.84;65.42;100312.81;5051124;28;20783;-77
2022/06/30 08:50:31;;;;;;;10.87;10.07;;;;;;;23.90;65.18;100314.16;5048529;28;20265;-77
2022/06/30 08:52:59;;;;;;;11.73;10.93;;;;;;;23.97;64.86;100321.56;5043219;28;20202;-77
2022/06/30 08:55:28;;;;;;;10.23;9.53;;;;;;;24.06;64.28;100332.47;5051448;28;20292;-77
2022/06/30 08:57:59;;;;;;;11.43;10.53;;;;;;;24.17;64.87;100329.84;5050879;28;20286;-76
2022/06/30 09:00:25;;;;;;;11.07;10.37;;;;;;;24.22;63.92;100351.69;5051226;28;20278;-77
2022/06/30 09:02:52;;;;;;;12.37;11.20;;;;;;;24.29;64.80;100317.38;5051519;28;20210;-77
2022/06/30 09:05:18;;;;;;;11.50;10.70;;;;;;;24.28;63.75;100335.19;5051250;28;20675;-77
2022/06/30 09:07:46;;;;;;;10.87;9.87;;;;;;;24.37;64.34;100337.13;5051120;28;20787;-77
2022/06/30 09:10:13;;;;;;;12.00;11.20;;;;;;;24.45;63.33;100349.03;5051192;28;20223;-76
2022/06/30 09:12:41;;;;;;;12.33;11.53;;;;;;;24.51;62.65;100375.25;5051291;28;20213;-77
2022/06/30 09:15:08;;;;;;;12.00;11.20;;;;;;;24.43;62.33;100382.97;5051723;28;20208;-77
2022/06/30 09:17:35;;;;;;;10.60;9.87;;;;;;;24.49;63.08;100367.34;5051100;28;20225;-77
2022/06/30 09:20:05;;;;;;;11.20;10.40;;;;;;;24.50;62.88;100378.84;5048872;28;20229;-77
2022/06/30 09:22:35;;;;;;;11.27;10.57;;;;;;;24.50;63.62;100339.72;5034075;28;20204;-77
2022/06/30 09:25:05;;;;;;;10.97;10.27;;;;;;;24.54;61.66;100349.19;5034925;28;20292;-77
2022/06/30 09:27:33;;;;;;;11.73;10.77;;;;;;;24.62;62.47;100361.94;5034695;28;20225;-77
2022/06/30 09:30:03;;;;;;;11.20;10.50;;;;;;;24.62;61.95;100383.28;5035039;28;20300;-77
2022/06/30 09:32:30;;;;;;;10.87;10.27;;;;;;;24.70;62.17;100355.97;5035746;28;20303;-77
2022/06/30 09:35:09;;;;;;;11.67;10.83;;;;;;;24.86;62.50;100353.78;5035213;28;20268;-76
2022/06/30 09:37:36;;;;;;;11.93;11.03;;;;;;;24.93;62.07;100354.97;5034104;28;20315;-77
2022/06/30 09:40:04;;;;;;;10.57;9.63;;;;;;;25.01;62.07;100369.53;5023743;28;20718;-77
2022/06/30 09:42:40;;;;;;;12.07;10.87;;;;;;;25.09;60.69;100380.44;5025658;28;20228;-77
2022/06/30 09:45:09;;;;;;;10.83;9.93;;;;;;;25.13;62.89;100344.47;5025695;28;20663;-77
2022/06/30 09:47:36;;;;;;;11.60;10.70;;;;;;;25.24;61.01;100378.38;5023918;28;20230;-77
2022/06/30 09:50:05;;;;;;;11.40;10.60;;;;;;;25.33;60.54;100401.66;5026085;28;20201;-77
2022/06/30 09:52:33;;;;;;;11.63;10.83;;;;;;;25.38;60.69;100409.31;5029586;28;20615;-76
2022/06/30 09:55:01;;;;;;;11.60;10.80;;;;;;;25.47;60.61;100406.75;5024299;28;20256;-77
2022/06/30 09:57:31;;;;;;;11.57;10.87;;;;;;;25.56;60.05;100419.34;5025509;28;20222;-77
2022/06/30 10:00:00;;;;;;;11.33;10.63;;;;;;;25.67;60.09;100414.91;5024076;28;20227;-77
2022/06/30 10:02:34;;;;;;;11.87;11.07;;;;;;;25.82;59.30;100424.34;5025506;28;20552;-77
2022/06/30 10:05:02;;;;;;;12.03;11.33;;;;;;;25.91;59.92;100417.44;5027753;28;20267;-77
2022/06/30 10:07:29;;;;;;;12.03;11.30;;;;;;;26.10;60.06;100392.63;5026576;28;20233;-77
2022/06/30 10:09:56;;;;;;;11.33;10.63;;;;;;;26.25;58.61;100444.00;5035255;28;20223;-77
2022/06/30 10:12:24;;;;;;;11.87;11.00;;;;;;;26.38;60.78;100420.56;5034040;28;20199;-77
2022/06/30 10:14:54;;;;;;;10.77;10.07;;;;;;;26.51;58.47;100431.91;5033269;28;20605;-77
2022/06/30 10:17:23;;;;;;;11.13;10.33;;;;;;;26.65;58.39;100470.91;5026322;28;20281;-76
2022/06/30 10:19:52;;;;;;;11.10;10.30;;;;;;;26.77;57.85;100460.13;5023612;28;20269;-76
2022/06/30 10:22:19;;;;;;;11.57;10.77;;;;;;;26.91;57.81;100467.81;5029446;28;20199;-78
2022/06/30 10:24:47;;;;;;;11.50;10.70;;;;;;;27.00;56.88;100492.97;5026020;28;20210;-76
2022/06/30 10:27:14;;;;;;;11.30;10.50;;;;;;;27.03;55.88;100524.81;5025616;28;20244;-75
2022/06/30 10:29:45;;;;;;;11.80;11.00;;;;;;;27.02;55.72;100529.34;5022964;28;20197;-77
2022/06/30 10:32:22;;;;;;;10.83;10.13;;;;;;;27.02;56.50;100517.78;5024438;28;20777;-76
2022/06/30 10:35:09;;;;;;;11.47;10.63;;;;;;;27.06;55.28;100525.41;5019063;28;20202;-76
2022/06/30 10:37:43;;;;;;;10.80;10.10;;;;;;;27.10;55.34;100542.09;5013572;28;20632;-77
2022/06/30 10:40:21;;;;;;;11.07;10.33;;;;;;;27.14;55.34;100538.16;5014011;28;20265;-77
2022/06/30 10:42:48;;;;;;;11.80;11.00;;;;;;;27.10;54.70;100548.28;5014180;28;20321;-76
2022/06/30 10:45:35;;;;;;;11.47;10.67;;;;;;;27.07;56.54;100537.81;5014000;28;20206;-76
2022/06/30 10:48:05;;;;;;;11.57;10.77;;;;;;;26.99;55.60;100526.91;5013263;28;20227;-76
2022/06/30 10:50:34;;;;;;;11.67;10.83;;;;;;;27.09;55.25;100501.00;5023665;28;20296;-75
2022/06/30 10:53:01;;;;;;;10.73;10.13;;;;;;;27.14;55.52;100519.38;5044944;28;20198;-75
2022/06/30 10:55:28;;;;;;;10.60;9.90;;;;;;;27.11;54.99;100487.50;5053396;28;20256;-76
2022/06/30 10:58:08;;;;;;;10.97;10.13;;;;;;;27.21;55.71;100498.25;5052927;28;20225;-76
2022/06/30 11:00:47;;;;;;;11.47;10.57;;;;;;;27.20;55.65;100505.44;5053140;28;20229;-76
2022/06/30 11:03:59;;;;;;;10.57;9.77;;;;;;;27.26;56.66;100496.06;5053212;28;20619;-76
2022/06/30 11:07:07;;;;;;;10.40;9.70;;;;;;;27.41;54.25;100510.75;5052795;28;20208;-76
2022/06/30 11:10:18;;;;;;;10.40;9.63;;;;;;;27.52;53.31;100539.31;5052902;28;20209;-76
2022/06/30 11:13:09;;;;;;;10.27;9.57;;;;;;;27.67;52.80;100559.41;5052925;28;20206;-76
2022/06/30 11:15:58;;;;;;;10.47;9.77;;;;;;;27.83;52.91;100568.75;5053009;28;20202;-76
2022/06/30 11:18:26;;;;;;;9.60;9.00;;;;;;;27.93;53.85;100527.56;5052551;28;20229;-76
2022/06/30 11:20:54;;;;;;;9.23;8.70;;;;;;;28.06;52.34;100551.44;5049802;28;20218;-76
2022/06/30 11:23:21;;;;;;;9.90;9.27;;;;;;;28.19;51.94;100575.34;5044420;28;20209;-76
2022/06/30 11:28:42;;;;;;;9.53;8.93;;;;;;;28.51;51.03;100599.25;5052269;28;20864;-76
2022/06/30 11:31:30;;;;;;;9.67;9.07;;;;;;;28.76;52.47;100580.00;5052538;28;20202;-75
2022/06/30 11:33:59;;;;;;;10.40;9.67;;;;;;;29.02;51.36;100570.34;5052525;28;20663;-76
2022/06/30 11:36:26;;;;;;;9.70;9.17;;;;;;;29.33;48.90;100634.66;5052183;28;20801;-76
2022/06/30 11:38:54;;;;;;;10.57;9.97;;;;;;;29.94;47.17;100689.84;5052090;28;20728;-76
2022/06/30 11:44:11;;;;;;;9.80;9.30;;;;;;;32.14;42.68;100810.75;5052197;28;20204;-76
2022/06/30 11:46:55;;;;;;;9.13;8.53;;;;;;;33.61;40.65;100891.50;5052029;28;20221;-76
2022/06/30 11:49:22;;;;;;;9.77;9.10;;;;;;;34.34;37.80;100965.66;5052266;28;20202;-76
2022/06/30 11:51:49;;;;;;;9.20;8.63;;;;;;;35.42;35.62;101002.28;5043154;28;20209;-75